createdAt,value
2022-11-19T00:01:51.042Z,16.46
2022-11-19T00:04:52.583Z,16.45
2022-11-19T00:07:54.074Z,16.43
2022-11-19T00:10:55.567Z,16.42
2022-11-19T00:13:57.067Z,16.41
2022-11-19T00:16:58.589Z,16.39
2022-11-19T00:20:00.152Z,16.38
2022-11-19T00:23:01.736Z,16.38
2022-11-19T00:26:11.537Z,16.40
2022-11-19T00:29:17.927Z,16.38
2022-11-19T00:32:19.834Z,16.38
2022-11-19T00:35:21.429Z,16.38
2022-11-19T00:38:22.919Z,16.37
2022-11-19T00:41:24.404Z,16.36
2022-11-19T00:44:25.928Z,16.35
2022-11-19T00:47:27.464Z,16.36
2022-11-19T00:50:31.233Z,16.35
2022-11-19T00:53:32.910Z,16.34
2022-11-19T00:56:34.426Z,16.34
2022-11-19T00:59:35.936Z,16.32
2022-11-19T01:02:37.446Z,16.32
2022-11-19T01:05:39.072Z,16.30
2022-11-19T01:08:40.585Z,16.29
2022-11-19T01:11:42.258Z,16.28
2022-11-19T01:14:43.742Z,16.28
2022-11-19T01:17:45.253Z,16.26
2022-11-19T01:20:47.438Z,16.24
2022-11-19T01:23:49.274Z,16.21
2022-11-19T01:26:50.775Z,16.20
2022-11-19T01:29:52.232Z,16.18
2022-11-19T01:32:54.054Z,16.19
2022-11-19T01:36:00.724Z,16.17
2022-11-19T01:39:02.200Z,16.15
2022-11-19T01:42:03.825Z,16.14
2022-11-19T01:45:07.443Z,16.15
2022-11-19T01:48:17.735Z,16.13
2022-11-19T01:51:27.054Z,16.14
2022-11-19T01:54:38.745Z,16.14
2022-11-19T01:57:41.042Z,16.13
2022-11-19T02:00:42.833Z,16.12
2022-11-19T02:03:44.780Z,16.10
2022-11-19T02:06:47.467Z,16.09
2022-11-19T02:09:49.373Z,16.09
2022-11-19T02:13:20.626Z,16.11
2022-11-19T02:16:48.502Z,16.08
2022-11-19T02:20:11.068Z,16.05
2022-11-19T02:23:24.711Z,16.05
2022-11-19T02:26:32.181Z,16.03
2022-11-19T02:29:56.407Z,16.02
2022-11-19T02:33:06.972Z,16.01
2022-11-19T02:36:20.677Z,16.01
2022-11-19T02:39:38.660Z,15.99
2022-11-19T02:42:56.720Z,15.99
2022-11-19T02:46:12.392Z,15.98
2022-11-19T02:49:15.379Z,15.98
2022-11-19T02:52:18.520Z,15.98
2022-11-19T02:55:21.886Z,15.99
2022-11-19T02:58:42.300Z,15.97
2022-11-19T03:02:05.108Z,15.97
2022-11-19T03:05:10.304Z,15.98
2022-11-19T03:08:11.871Z,15.96
2022-11-19T03:11:29.228Z,15.97
2022-11-19T03:14:59.667Z,15.95
2022-11-19T03:18:10.410Z,15.94
2022-11-19T03:21:21.353Z,15.93
2022-11-19T03:24:45.466Z,15.91
2022-11-19T03:27:53.646Z,15.90
2022-11-19T03:30:58.406Z,15.88
2022-11-19T03:34:03.938Z,15.88
2022-11-19T03:37:08.782Z,15.86
2022-11-19T03:40:12.525Z,15.85
2022-11-19T03:43:18.625Z,15.86
2022-11-19T03:46:23.498Z,15.85
2022-11-19T03:49:31.831Z,15.85
2022-11-19T03:52:33.725Z,15.84
2022-11-19T03:55:41.151Z,15.86
2022-11-19T03:58:46.892Z,15.86
2022-11-19T04:01:50.491Z,15.86
2022-11-19T04:04:59.557Z,15.86
2022-11-19T04:08:01.135Z,15.85
2022-11-19T04:14:03.108Z,15.85
2022-11-19T04:17:04.586Z,15.84
2022-11-19T04:20:07.398Z,15.85
2022-11-19T04:23:08.923Z,15.84
2022-11-19T04:26:10.472Z,15.84
2022-11-19T04:29:12.127Z,15.83
2022-11-19T04:32:13.630Z,15.82
2022-11-19T04:35:18.056Z,15.81
2022-11-19T04:38:19.638Z,15.80
2022-11-19T04:41:21.110Z,15.79
2022-11-19T04:44:22.772Z,15.79
2022-11-19T04:47:24.226Z,15.79
2022-11-19T04:50:25.802Z,15.80
2022-11-19T04:53:27.554Z,15.79
2022-11-19T04:56:29.039Z,15.79
2022-11-19T04:59:30.534Z,15.80
2022-11-19T05:02:32.015Z,15.82
2022-11-19T05:05:33.503Z,15.81
2022-11-19T05:08:34.996Z,15.81
2022-11-19T05:11:36.514Z,15.82
2022-11-19T05:14:38.606Z,15.81
2022-11-19T05:17:40.134Z,15.80
2022-11-19T05:20:41.801Z,15.81
2022-11-19T05:23:43.282Z,15.80
2022-11-19T05:26:44.812Z,15.79
2022-11-19T05:29:46.268Z,15.78
2022-11-19T05:32:48.099Z,15.77
2022-11-19T05:35:49.556Z,15.77
2022-11-19T05:38:51.015Z,15.76
2022-11-19T05:41:52.499Z,15.76
2022-11-19T05:44:53.992Z,15.75
2022-11-19T05:47:55.775Z,15.75
2022-11-19T05:50:57.316Z,15.74
2022-11-19T05:53:58.852Z,15.76
2022-11-19T05:57:00.412Z,15.75
2022-11-19T06:00:01.884Z,15.76
2022-11-19T06:03:13.861Z,15.76
2022-11-19T06:06:15.489Z,15.74
2022-11-19T06:09:17.298Z,15.74
2022-11-19T06:12:19.275Z,15.74
2022-11-19T06:15:20.816Z,15.73
2022-11-19T06:18:22.280Z,15.72
2022-11-19T06:21:23.767Z,15.72
2022-11-19T06:24:25.342Z,15.73
2022-11-19T06:27:26.823Z,15.73
2022-11-19T06:30:28.323Z,15.72
2022-11-19T06:33:29.800Z,15.70
2022-11-19T06:36:37.320Z,15.70
2022-11-19T06:39:41.906Z,15.69
2022-11-19T06:42:45.231Z,15.70
2022-11-19T06:45:49.885Z,15.71
2022-11-19T06:48:51.374Z,15.70
2022-11-19T06:51:52.901Z,15.69
2022-11-19T06:54:54.598Z,15.68
2022-11-19T06:57:57.593Z,15.70
2022-11-19T07:00:59.334Z,15.70
2022-11-19T07:04:00.912Z,15.70
2022-11-19T07:07:02.502Z,15.69
2022-11-19T07:10:04.390Z,15.68
2022-11-19T07:13:06.174Z,15.68
2022-11-19T07:16:07.895Z,15.66
2022-11-19T07:19:09.822Z,15.66
2022-11-19T07:22:11.469Z,15.64
2022-11-19T07:25:13.213Z,15.65
2022-11-19T07:28:14.869Z,15.63
2022-11-19T07:31:16.412Z,15.62
2022-11-19T07:34:17.994Z,15.61
2022-11-19T07:37:19.539Z,15.61
2022-11-19T07:40:21.026Z,15.61
2022-11-19T07:43:23.474Z,15.62
2022-11-19T07:46:25.074Z,15.63
2022-11-19T07:49:26.848Z,15.66
2022-11-19T07:52:28.387Z,15.71
2022-11-19T07:55:29.954Z,15.75
2022-11-19T07:58:31.421Z,15.78
2022-11-19T08:01:33.098Z,15.80
2022-11-19T08:04:34.646Z,15.84
2022-11-19T08:07:39.636Z,15.88
2022-11-19T08:10:41.200Z,15.90
2022-11-19T08:13:43.148Z,15.94
2022-11-19T08:17:03.332Z,15.97
2022-11-19T08:20:05.358Z,15.98
2022-11-19T08:23:07.145Z,16.01
2022-11-19T08:26:08.791Z,16.05
2022-11-19T08:29:16.253Z,16.09
2022-11-19T08:32:18.079Z,16.12
2022-11-19T08:35:19.560Z,16.15
2022-11-19T08:38:21.012Z,16.17
2022-11-19T08:41:41.187Z,16.19
2022-11-19T08:44:42.745Z,16.20
2022-11-19T08:47:44.255Z,16.22
2022-11-19T08:50:45.842Z,16.20
2022-11-19T08:53:47.383Z,16.20
2022-11-19T08:56:49.014Z,16.19
2022-11-19T08:59:50.562Z,16.20
2022-11-19T09:02:52.082Z,16.20
2022-11-19T09:06:00.274Z,16.21
2022-11-19T09:09:03.479Z,16.21
2022-11-19T09:12:05.245Z,16.22
2022-11-19T09:15:08.208Z,16.23
2022-11-19T09:18:09.704Z,16.24
2022-11-19T09:21:11.796Z,16.26
2022-11-19T09:24:13.261Z,16.27
2022-11-19T09:27:14.867Z,16.30
2022-11-19T09:30:16.561Z,16.31
2022-11-19T09:33:18.065Z,16.32
2022-11-19T09:36:20.576Z,16.35
2022-11-19T09:39:22.047Z,16.35
2022-11-19T09:42:26.475Z,16.38
2022-11-19T09:45:40.621Z,16.38
2022-11-19T09:48:42.201Z,16.37
2022-11-19T09:51:51.326Z,16.40
2022-11-19T09:54:56.660Z,16.41
2022-11-19T09:57:59.875Z,16.41
2022-11-19T10:01:01.457Z,16.43
2022-11-19T10:04:04.259Z,16.43
2022-11-19T10:07:24.368Z,16.46
2022-11-19T10:10:47.092Z,16.46
2022-11-19T10:14:13.218Z,16.46
2022-11-19T10:17:24.097Z,16.45
2022-11-19T10:20:47.473Z,16.46
2022-11-19T10:24:17.851Z,16.44
2022-11-19T10:27:29.590Z,16.45
2022-11-19T10:30:31.249Z,16.45
2022-11-19T10:33:42.023Z,16.46
2022-11-19T10:36:48.465Z,16.47
2022-11-19T10:39:52.125Z,16.46
2022-11-19T10:43:09.018Z,16.47
2022-11-19T10:46:12.206Z,16.48
2022-11-19T10:49:13.683Z,16.46
2022-11-19T10:52:34.038Z,16.50
2022-11-19T10:55:37.930Z,16.50
2022-11-19T10:58:45.061Z,16.51
2022-11-19T11:01:50.494Z,16.54
2022-11-19T11:05:11.516Z,16.55
2022-11-19T11:08:12.991Z,16.54
2022-11-19T11:11:49.776Z,16.57
2022-11-19T11:15:19.329Z,16.57
2022-11-19T11:18:26.857Z,16.57
2022-11-19T11:21:28.244Z,16.56
2022-11-19T11:24:36.432Z,16.58
2022-11-19T11:27:37.943Z,16.58
2022-11-19T11:30:58.895Z,16.61
2022-11-19T11:34:02.248Z,16.61
2022-11-19T11:37:06.362Z,16.62
2022-11-19T11:40:19.450Z,16.64
2022-11-19T11:43:21.245Z,16.62
2022-11-19T11:46:22.742Z,16.63
2022-11-19T11:49:36.460Z,16.63
2022-11-19T11:52:45.350Z,16.62
2022-11-19T11:55:57.120Z,16.62
2022-11-19T11:59:13.751Z,16.63
2022-11-19T12:02:32.393Z,16.63
2022-11-19T12:06:08.571Z,16.63
2022-11-19T12:09:28.917Z,16.63
2022-11-19T12:12:56.320Z,16.63
2022-11-19T12:16:03.748Z,16.65
2022-11-19T12:19:05.088Z,16.63
2022-11-19T12:22:27.922Z,16.63
2022-11-19T12:25:54.383Z,16.62
2022-11-19T12:29:20.433Z,16.61
2022-11-19T12:32:47.045Z,16.63
2022-11-19T12:36:16.837Z,16.63
2022-11-19T12:39:35.934Z,16.61
2022-11-19T12:42:54.272Z,16.63
2022-11-19T12:46:07.764Z,16.62
2022-11-19T12:49:27.415Z,16.66
2022-11-19T12:52:28.826Z,16.63
2022-11-19T12:55:39.000Z,16.62
2022-11-19T12:58:58.789Z,16.64
2022-11-19T13:02:04.313Z,16.63
2022-11-19T13:05:20.293Z,16.64
2022-11-19T13:08:32.394Z,16.63
2022-11-19T13:11:38.212Z,16.63
2022-11-19T13:14:44.551Z,16.64
2022-11-19T13:17:51.740Z,16.65
2022-11-19T13:21:01.530Z,16.66
2022-11-19T13:24:29.550Z,16.67
2022-11-19T13:27:31.999Z,16.66
2022-11-19T13:30:34.710Z,16.65
2022-11-19T13:33:47.851Z,16.67
2022-11-19T13:37:02.180Z,16.65
2022-11-19T13:40:16.446Z,16.66
2022-11-19T13:43:38.947Z,16.65
2022-11-19T13:46:49.527Z,16.65
2022-11-19T13:50:06.864Z,16.66
2022-11-19T13:53:26.249Z,16.67
2022-11-19T13:56:47.527Z,16.67
2022-11-19T13:59:49.917Z,16.67
2022-11-19T14:03:15.761Z,16.67
2022-11-19T14:06:44.642Z,16.67
2022-11-19T14:09:55.327Z,16.63
2022-11-19T14:13:21.241Z,16.66
2022-11-19T14:16:56.614Z,16.66
2022-11-19T14:20:16.943Z,16.65
2022-11-19T14:24:06.947Z,16.67
2022-11-19T14:27:30.497Z,16.69
2022-11-19T14:31:01.145Z,16.70
2022-11-19T14:34:04.130Z,16.71
2022-11-19T14:37:26.128Z,16.72
2022-11-19T14:40:33.224Z,16.73
2022-11-19T14:44:08.782Z,16.73
2022-11-19T14:47:22.385Z,16.74
2022-11-19T14:50:23.798Z,16.70
2022-11-19T14:53:25.411Z,16.71
2022-11-19T14:56:27.637Z,16.72
2022-11-19T14:59:34.390Z,16.72
2022-11-19T15:02:45.670Z,16.73
2022-11-19T15:05:47.684Z,16.73
2022-11-19T15:08:56.818Z,16.73
2022-11-19T15:12:00.963Z,16.73
2022-11-19T15:15:20.541Z,16.73
2022-11-19T15:18:28.066Z,16.72
2022-11-19T15:21:38.825Z,16.71
2022-11-19T15:24:55.386Z,16.74
2022-11-19T15:28:26.143Z,16.75
2022-11-19T15:31:47.317Z,16.76
2022-11-19T15:38:18.539Z,16.77
2022-11-19T15:41:24.369Z,16.78
2022-11-19T15:45:00.565Z,16.77
2022-11-19T15:48:28.473Z,16.76
2022-11-19T15:51:37.955Z,16.76
2022-11-19T15:54:43.511Z,16.73
2022-11-19T15:57:48.536Z,16.73
2022-11-19T16:00:53.740Z,16.71
2022-11-19T16:03:55.744Z,16.71
2022-11-19T16:06:57.299Z,16.71
2022-11-19T16:10:00.224Z,16.73
2022-11-19T16:13:22.547Z,16.71
2022-11-19T16:16:46.035Z,16.68
2022-11-19T16:20:09.474Z,16.69
2022-11-19T16:23:14.255Z,16.69
2022-11-19T16:26:15.895Z,16.70
2022-11-19T16:29:21.694Z,16.73
2022-11-19T16:32:26.006Z,16.77
2022-11-19T16:35:31.914Z,16.80
2022-11-19T16:38:33.662Z,16.82
2022-11-19T16:41:53.970Z,16.85
2022-11-19T16:45:04.673Z,16.88
2022-11-19T16:48:06.259Z,16.92
2022-11-19T16:51:26.314Z,16.95
2022-11-19T16:54:49.027Z,16.95
2022-11-19T16:58:02.398Z,16.96
2022-11-19T17:01:04.111Z,16.95
2022-11-19T17:04:07.799Z,17.01
2022-11-19T17:07:14.359Z,17.03
2022-11-19T17:10:18.709Z,17.02
2022-11-19T17:13:32.228Z,17.07
2022-11-19T17:16:35.273Z,17.07
2022-11-19T17:19:36.967Z,17.07
2022-11-19T17:22:39.713Z,17.09
2022-11-19T17:25:48.956Z,17.12
2022-11-19T17:28:56.110Z,17.13
2022-11-19T17:31:57.790Z,17.12
2022-11-19T17:34:59.315Z,17.12
2022-11-19T17:38:10.053Z,17.15
2022-11-19T17:41:37.303Z,17.16
2022-11-19T17:44:39.738Z,17.16
2022-11-19T17:47:41.254Z,17.19
2022-11-19T17:50:42.755Z,17.21
2022-11-19T17:53:44.311Z,17.23
2022-11-19T17:56:45.860Z,17.26
2022-11-19T17:59:47.364Z,17.30
2022-11-19T18:02:48.906Z,17.34
2022-11-19T18:05:50.674Z,17.38
2022-11-19T18:08:52.190Z,17.38
2022-11-19T18:11:53.638Z,17.37
2022-11-19T18:14:59.304Z,17.38
2022-11-19T18:18:03.504Z,17.39
2022-11-19T18:21:05.092Z,17.40
2022-11-19T18:24:10.299Z,17.42
2022-11-19T18:27:11.766Z,17.43
2022-11-19T18:30:14.249Z,17.45
2022-11-19T18:33:15.836Z,17.45
2022-11-19T18:36:18.055Z,17.47
2022-11-19T18:39:20.002Z,17.48
2022-11-19T18:42:22.141Z,17.49
2022-11-19T18:45:23.702Z,17.50
2022-11-19T18:48:25.198Z,17.50
2022-11-19T18:51:30.116Z,17.53
2022-11-19T18:54:31.730Z,17.53
2022-11-19T18:57:33.223Z,17.52
2022-11-19T19:00:34.952Z,17.52
2022-11-19T19:03:36.965Z,17.55
2022-11-19T19:06:39.465Z,17.57
2022-11-19T19:09:41.027Z,17.57
2022-11-19T19:12:42.511Z,17.57
2022-11-19T19:15:43.991Z,17.58
2022-11-19T19:18:45.535Z,17.59
2022-11-19T19:21:47.475Z,17.60
2022-11-19T19:24:50.752Z,17.59
2022-11-19T19:27:54.120Z,17.59
2022-11-19T19:30:59.247Z,17.60
2022-11-19T19:34:01.284Z,17.60
2022-11-19T19:37:04.151Z,17.62
2022-11-19T19:40:06.466Z,17.63
2022-11-19T19:43:08.047Z,17.64
2022-11-19T19:46:16.183Z,17.67
2022-11-19T19:49:17.706Z,17.64
2022-11-19T19:52:19.223Z,17.67
2022-11-19T19:55:20.802Z,17.67
2022-11-19T19:58:27.904Z,17.68
2022-11-19T20:01:34.908Z,17.69
2022-11-19T20:04:36.428Z,17.68
2022-11-19T20:07:38.004Z,17.68
2022-11-19T20:10:39.511Z,17.69
2022-11-19T20:13:41.549Z,17.71
2022-11-19T20:16:43.209Z,17.72
2022-11-19T20:19:44.693Z,17.73
2022-11-19T20:22:46.202Z,17.75
2022-11-19T20:25:47.775Z,17.74
2022-11-19T20:28:57.235Z,17.76
2022-11-19T20:31:59.034Z,17.77
2022-11-19T20:35:00.606Z,17.76
2022-11-19T20:38:03.677Z,17.76
2022-11-19T20:41:07.297Z,17.76
2022-11-19T20:44:21.276Z,17.78
2022-11-19T20:47:23.066Z,17.78
2022-11-19T20:50:24.565Z,17.78
2022-11-19T20:53:26.047Z,17.80
2022-11-19T20:56:27.532Z,17.78
2022-11-19T20:59:29.783Z,17.79
2022-11-19T21:02:31.339Z,17.81
2022-11-19T21:05:32.897Z,17.81
2022-11-19T21:08:35.873Z,17.83
2022-11-19T21:11:37.713Z,17.84
2022-11-19T21:14:39.212Z,17.86
2022-11-19T21:17:40.688Z,17.87
2022-11-19T21:20:42.139Z,17.87
2022-11-19T21:23:43.870Z,17.86
2022-11-19T21:26:45.445Z,17.86
2022-11-19T21:29:47.908Z,17.86
2022-11-19T21:32:49.412Z,17.87
2022-11-19T21:35:50.917Z,17.87
2022-11-19T21:38:52.375Z,17.88
2022-11-19T21:41:53.916Z,17.88
2022-11-19T21:44:55.395Z,17.88
2022-11-19T21:47:57.194Z,17.86
2022-11-19T21:50:58.785Z,17.84
2022-11-19T21:54:00.350Z,17.81
2022-11-19T21:57:01.889Z,17.78
2022-11-19T22:00:05.338Z,17.77
2022-11-19T22:03:14.635Z,17.74
2022-11-19T22:06:16.236Z,17.72
2022-11-19T22:09:17.909Z,17.68
2022-11-19T22:12:19.531Z,17.66
2022-11-19T22:15:21.010Z,17.64
2022-11-19T22:18:22.481Z,17.62
2022-11-19T22:21:24.005Z,17.60
2022-11-19T22:24:25.498Z,17.57
2022-11-19T22:27:29.229Z,17.58
2022-11-19T22:30:30.704Z,17.54
2022-11-19T22:33:34.021Z,17.54
2022-11-19T22:36:35.501Z,17.52
2022-11-19T22:39:36.982Z,17.53
2022-11-19T22:42:38.445Z,17.51
2022-11-19T22:45:44.888Z,17.54
2022-11-19T22:48:46.522Z,17.54
2022-11-19T22:51:49.251Z,17.51
2022-11-19T22:54:50.711Z,17.49
2022-11-19T22:57:52.204Z,17.48
2022-11-19T23:00:53.723Z,17.47
2022-11-19T23:03:56.833Z,17.46
2022-11-19T23:06:58.392Z,17.44
2022-11-19T23:10:00.613Z,17.43
2022-11-19T23:13:21.972Z,17.43
2022-11-19T23:16:23.426Z,17.39
2022-11-19T23:19:24.924Z,17.39
2022-11-19T23:22:26.366Z,17.38
2022-11-19T23:25:27.830Z,17.39
2022-11-19T23:28:31.278Z,17.42
2022-11-19T23:31:40.036Z,17.42
2022-11-19T23:34:41.526Z,17.41
2022-11-19T23:37:43.014Z,17.42
2022-11-19T23:40:44.523Z,17.42
2022-11-19T23:43:47.091Z,17.42
2022-11-19T23:46:48.626Z,17.41
2022-11-19T23:49:50.100Z,17.38
2022-11-19T23:52:51.591Z,17.37
2022-11-19T23:55:53.069Z,17.34
2022-11-19T23:58:54.634Z,17.02
